Time;durP1;ratioP1;P1;durP2;ratioP2;P2;SDS_P1;SDS_P2;PMS_P1;PMS_P2;Temp;Humidity;BMP_temperature;BMP_pressure;BME280_temperature;BME280_humidity;BME280_pressure;Samples;Min_cycle;Max_cycle;Signal;HPM_P1;HPM_P2
2023/05/02 00:00:35;;;;;;;;;;;;;;;15.08;63.24;100128.22;5093404;28;19969;-37
2023/05/02 00:03:01;;;;;;;;;;;;;;;14.32;66.18;100141.72;5093554;28;20384;-37
2023/05/02 00:05:26;;;;;;;;;;;;;;;14.29;66.30;100136.78;5093305;28;19912;-36
2023/05/02 00:07:52;;;;;;;;;;;;;;;14.70;65.08;100132.75;5093480;28;19944;-37
2023/05/02 00:10:17;;;;;;;;;;;;;;;14.60;65.11;100152.00;5093335;28;19915;-37
2023/05/02 00:12:43;;;;;;;;;;;;;;;14.45;65.05;100144.28;5093142;28;19912;-37
2023/05/02 00:15:08;;;;;;;;;;;;;;;14.41;65.40;100147.59;5093225;28;19916;-37
2023/05/02 00:17:34;;;;;;;;;;;;;;;14.61;64.12;100150.97;5093552;28;19997;-37
2023/05/02 00:19:59;;;;;;;;;;;;;;;14.16;64.75;100145.72;5093531;28;19950;-37
2023/05/02 00:22:24;;;;;;;;;;;;;;;14.53;63.86;100148.53;5093210;28;19915;-37
2023/05/02 00:24:54;;;;;;;;;;;;;;;14.66;63.11;100147.63;5093140;28;20382;-37
2023/05/02 00:27:19;;;;;;;;;;;;;;;14.68;62.81;100142.03;5072982;28;20005;-37
2023/05/02 00:29:46;;;;;;;;;;;;;;;14.79;62.56;100149.34;5072741;28;20350;-37
2023/05/02 00:32:12;;;;;;;;;;;;;;;14.77;62.40;100154.94;5072600;28;19920;-37
2023/05/02 00:34:37;;;;;;;;;;;;;;;15.00;61.38;100150.78;5072227;28;19916;-37
2023/05/02 00:37:02;;;;;;;;;;;;;;;15.03;61.44;100153.84;5072518;28;19939;-37
2023/05/02 00:39:27;;;;;;;;;;;;;;;14.95;61.92;100159.50;5072894;28;20399;-36
2023/05/02 00:41:56;;;;;;;;;;;;;;;14.46;62.94;100167.31;5072768;28;19912;-37
2023/05/02 00:44:22;;;;;;;;;;;;;;;14.82;62.16;100165.00;5072518;28;19951;-37
2023/05/02 00:46:47;;;;;;;;;;;;;;;14.80;62.16;100169.75;5072744;28;20321;-37
2023/05/02 00:49:12;;;;;;;;;;;;;;;14.85;62.12;100168.06;5072426;28;19913;-37
2023/05/02 00:51:38;;;;;;;;;;;;;;;14.80;61.63;100170.56;5072110;28;19920;-37
2023/05/02 00:54:04;;;;;;;;;;;;;;;14.44;62.42;100171.28;5072089;28;19960;-37
2023/05/02 00:56:29;;;;;;;;;;;;;;;14.36;63.14;100172.38;5071085;28;20300;-37
2023/05/02 00:58:56;;;;;;;;;;;;;;;14.48;62.75;100169.78;5072422;28;19919;-38
2023/05/02 01:01:28;;;;;;;;;;;;;;;13.78;64.36;100177.88;5072375;28;19917;-37
2023/05/02 01:04:00;;;;;;;;;;;;;;;13.95;64.57;100168.31;5072034;28;19955;-37
2023/05/02 01:06:41;;;;;;;;;;;;;;;13.77;65.02;100170.91;5071995;28;19912;-36
2023/05/02 01:09:25;;;;;;;;;;;;;;;13.97;64.46;100173.44;5071914;28;19912;-36
2023/05/02 01:12:05;;;;;;;;;;;;;;;13.58;65.60;100173.44;5072249;28;19974;-37
2023/05/02 01:14:33;;;;;;;;;;;;;;;13.43;65.51;100172.91;5071755;28;19924;-36
2023/05/02 01:17:03;;;;;;;;;;;;;;;13.45;65.79;100171.66;5071894;28;19912;-36
2023/05/02 01:19:31;;;;;;;;;;;;;;;13.61;64.87;100175.72;5071958;28;19963;-37
2023/05/02 01:21:57;;;;;;;;;;;;;;;13.94;63.34;100174.72;5071478;28;19913;-37
2023/05/02 01:24:29;;;;;;;;;;;;;;;13.69;64.63;100177.31;5072146;28;19964;-36
2023/05/02 01:26:54;;;;;;;;;;;;;;;13.97;63.54;100170.78;5088883;28;19920;-37
2023/05/02 01:29:21;;;;;;;;;;;;;;;14.11;62.99;100185.72;5092289;28;19923;-36
2023/05/02 01:31:48;;;;;;;;;;;;;;;14.25;62.47;100187.25;5091671;28;19912;-36
2023/05/02 01:34:15;;;;;;;;;;;;;;;14.11;63.03;100179.53;5091980;28;19927;-36
2023/05/02 01:36:45;;;;;;;;;;;;;;;14.16;62.86;100177.84;5091618;28;19919;-36
2023/05/02 01:39:13;;;;;;;;;;;;;;;14.38;62.33;100174.81;5091859;28;19912;-36
2023/05/02 01:41:40;;;;;;;;;;;;;;;14.43;62.37;100177.66;5091788;28;19916;-36
2023/05/02 01:44:06;;;;;;;;;;;;;;;14.37;62.49;100181.22;5091281;28;19968;-37
2023/05/02 01:46:33;;;;;;;;;;;;;;;14.26;63.09;100180.88;5091753;28;20006;-36
2023/05/02 01:49:00;;;;;;;;;;;;;;;14.29;62.74;100174.25;5091395;28;19912;-36
2023/05/02 01:51:30;;;;;;;;;;;;;;;14.47;62.68;100185.03;5091526;28;19912;-37
2023/05/02 01:53:56;;;;;;;;;;;;;;;14.22;62.98;100186.88;5091689;28;19927;-36
2023/05/02 01:56:24;;;;;;;;;;;;;;;13.92;63.42;100183.97;5091440;28;20317;-36
2023/05/02 01:58:50;;;;;;;;;;;;;;;13.96;63.42;100185.19;5091216;28;20466;-36
2023/05/02 02:01:17;;;;;;;;;;;;;;;14.12;62.75;100182.00;5091141;28;19920;-36
2023/05/02 02:03:43;;;;;;;;;;;;;;;14.05;62.70;100186.56;5091096;28;19940;-36
2023/05/02 02:06:09;;;;;;;;;;;;;;;13.48;63.78;100175.75;5091075;28;19912;-36
2023/05/02 02:08:34;;;;;;;;;;;;;;;13.43;63.96;100186.25;5091057;28;19912;-36
2023/05/02 02:11:03;;;;;;;;;;;;;;;13.44;63.69;100190.56;5090805;28;19969;-37
2023/05/02 02:13:34;;;;;;;;;;;;;;;13.10;64.85;100189.84;5090871;28;20000;-37
2023/05/02 02:16:01;;;;;;;;;;;;;;;13.06;64.29;100186.75;5090529;28;19934;-37
2023/05/02 02:18:28;;;;;;;;;;;;;;;12.74;64.57;100179.59;5091464;28;19969;-37
2023/05/02 02:20:54;;;;;;;;;;;;;;;12.59;65.41;100182.50;5090931;28;20387;-37
2023/05/02 02:23:20;;;;;;;;;;;;;;;12.69;64.40;100190.91;5090931;28;19942;-37
2023/05/02 02:25:46;;;;;;;;;;;;;;;12.68;64.68;100187.41;5090012;28;19928;-37
2023/05/02 02:28:11;;;;;;;;;;;;;;;13.14;63.31;100183.03;5091149;28;20595;-37
2023/05/02 02:30:36;;;;;;;;;;;;;;;13.11;63.03;100186.13;5090808;28;19912;-37
2023/05/02 02:33:02;;;;;;;;;;;;;;;13.03;63.00;100184.50;5090477;28;19912;-37
2023/05/02 02:35:43;;;;;;;;;;;;;;;13.16;62.67;100193.53;5092318;28;19924;-37
2023/05/02 02:38:08;;;;;;;;;;;;;;;13.27;62.05;100191.00;5111063;28;19918;-37
2023/05/02 02:40:41;;;;;;;;;;;;;;;13.39;61.68;100193.88;5106916;28;19912;-37
2023/05/02 02:43:44;;;;;;;;;;;;;;;13.59;60.87;100185.78;5090393;28;19923;-37
2023/05/02 02:46:32;;;;;;;;;;;;;;;13.62;61.55;100182.69;5047646;28;20019;-37
2023/05/02 02:49:18;;;;;;;;;;;;;;;13.61;61.85;100197.09;5042282;28;19920;-37
2023/05/02 02:51:46;;;;;;;;;;;;;;;13.73;60.87;100199.94;5072673;28;19923;-36
2023/05/02 02:54:13;;;;;;;;;;;;;;;13.88;60.40;100196.97;5090425;28;19916;-37
2023/05/02 02:56:40;;;;;;;;;;;;;;;13.69;61.06;100199.53;5090295;28;19912;-37
2023/05/02 02:59:11;;;;;;;;;;;;;;;13.63;61.11;100205.72;5090485;28;20372;-37
2023/05/02 03:01:38;;;;;;;;;;;;;;;13.67;60.96;100212.28;5090530;28;19912;-37
2023/05/02 03:04:04;;;;;;;;;;;;;;;13.60;61.11;100208.81;5090422;28;19916;-35
2023/05/02 03:06:30;;;;;;;;;;;;;;;13.55;61.33;100216.66;5090113;28;19912;-35
2023/05/02 03:08:55;;;;;;;;;;;;;;;13.69;60.70;100210.22;5090166;28;19950;-35
2023/05/02 03:11:21;;;;;;;;;;;;;;;13.59;61.17;100207.16;5090194;28;19919;-35
2023/05/02 03:13:46;;;;;;;;;;;;;;;13.45;61.00;100208.25;5090241;28;20515;-37
2023/05/02 03:16:30;;;;;;;;;;;;;;;13.61;60.46;100207.81;5090243;28;19912;-35
2023/05/02 03:18:55;;;;;;;;;;;;;;;13.54;60.94;100212.34;5090264;28;19927;-37
2023/05/02 03:21:20;;;;;;;;;;;;;;;13.55;60.24;100221.19;5093164;28;20011;-37
2023/05/02 03:23:46;;;;;;;;;;;;;;;13.55;60.53;100218.50;5094498;28;19912;-37
2023/05/02 03:26:11;;;;;;;;;;;;;;;13.58;60.17;100223.44;5094050;28;19984;-37
2023/05/02 03:28:36;;;;;;;;;;;;;;;13.65;60.08;100230.41;5094212;28;20011;-38
2023/05/02 03:31:02;;;;;;;;;;;;;;;13.65;60.67;100233.06;5094057;28;19954;-37
2023/05/02 03:33:27;;;;;;;;;;;;;;;13.60;60.90;100224.06;5094007;28;19916;-37
2023/05/02 03:35:52;;;;;;;;;;;;;;;13.63;60.66;100226.28;5094010;28;20045;-35
2023/05/02 03:38:18;;;;;;;;;;;;;;;13.48;61.53;100234.59;5094166;28;20356;-35
2023/05/02 03:40:43;;;;;;;;;;;;;;;13.72;61.31;100240.25;5093726;28;19912;-35
2023/05/02 03:43:08;;;;;;;;;;;;;;;13.87;60.85;100240.81;5093726;28;19912;-36
2023/05/02 03:45:34;;;;;;;;;;;;;;;13.96;60.53;100246.75;5093396;28;20068;-36
2023/05/02 03:47:59;;;;;;;;;;;;;;;14.03;60.72;100250.19;5093729;28;20340;-35
2023/05/02 03:50:25;;;;;;;;;;;;;;;14.14;60.08;100254.03;5093752;28;19923;-35
2023/05/02 03:52:50;;;;;;;;;;;;;;;14.00;61.16;100254.13;5093639;28;20495;-35
2023/05/02 03:55:15;;;;;;;;;;;;;;;14.31;61.00;100254.38;5093934;28;19916;-35
2023/05/02 03:57:41;;;;;;;;;;;;;;;14.66;60.23;100262.81;5093872;28;19912;-37
2023/05/02 04:00:06;;;;;;;;;;;;;;;15.06;58.94;100259.81;5093404;28;20341;-37
2023/05/02 04:02:31;;;;;;;;;;;;;;;15.29;58.53;100271.72;5093562;28;20010;-37
2023/05/02 04:04:57;;;;;;;;;;;;;;;15.60;57.61;100266.25;5093394;28;19939;-36
2023/05/02 04:07:24;;;;;;;;;;;;;;;15.99;55.66;100266.00;5093362;28;20345;-36
2023/05/02 04:09:50;;;;;;;;;;;;;;;16.14;55.49;100263.75;5093388;28;19961;-36
2023/05/02 04:12:15;;;;;;;;;;;;;;;16.48;53.98;100269.47;5093138;28;19916;-36
2023/05/02 04:14:40;;;;;;;;;;;;;;;16.89;52.89;100275.09;5092531;28;19922;-36
2023/05/02 04:17:06;;;;;;;;;;;;;;;17.13;52.01;100281.28;5093044;28;19995;-36
2023/05/02 04:19:31;;;;;;;;;;;;;;;17.32;50.47;100284.66;5092895;28;19912;-36
2023/05/02 04:21:57;;;;;;;;;;;;;;;17.67;49.48;100278.41;5091928;28;19923;-36
2023/05/02 04:24:22;;;;;;;;;;;;;;;17.96;48.12;100279.31;5091411;28;20332;-36
2023/05/02 04:26:47;;;;;;;;;;;;;;;18.34;47.31;100281.41;5091227;28;20467;-36
2023/05/02 04:29:13;;;;;;;;;;;;;;;18.55;47.29;100282.56;5091160;28;19916;-36
2023/05/02 04:31:38;;;;;;;;;;;;;;;18.61;46.98;100279.97;5091164;28;20013;-36
2023/05/02 04:34:04;;;;;;;;;;;;;;;19.20;45.98;100288.50;5091795;28;19916;-37
2023/05/02 04:36:30;;;;;;;;;;;;;;;19.77;44.28;100298.19;5092560;28;19912;-37
2023/05/02 04:38:55;;;;;;;;;;;;;;;20.19;43.77;100289.50;5092883;28;19923;-36
2023/05/02 04:41:20;;;;;;;;;;;;;;;20.60;41.50;100289.94;5092712;28;20114;-36
2023/05/02 04:43:46;;;;;;;;;;;;;;;20.66;41.33;100285.41;5091709;28;20379;-36
2023/05/02 04:46:11;;;;;;;;;;;;;;;20.57;42.36;100281.50;5092429;28;19990;-35
2023/05/02 04:48:40;;;;;;;;;;;;;;;20.79;41.30;100278.72;5092369;28;20267;-36
2023/05/02 04:51:06;;;;;;;;;;;;;;;20.96;40.57;100275.88;5091786;28;19938;-36
2023/05/02 04:53:31;;;;;;;;;;;;;;;21.29;40.39;100280.19;5091607;28;20492;-37
2023/05/02 04:55:56;;;;;;;;;;;;;;;21.19;39.58;100280.94;5091924;28;19912;-36
2023/05/02 04:58:22;;;;;;;;;;;;;;;21.26;38.64;100284.19;5091471;28;20309;-35
2023/05/02 05:00:47;;;;;;;;;;;;;;;21.19;38.06;100285.50;5091972;28;19912;-36
2023/05/02 05:03:13;;;;;;;;;;;;;;;20.34;38.50;100296.16;5093871;28;19916;-36
2023/05/02 05:05:38;;;;;;;;;;;;;;;19.64;39.56;100302.03;5076361;28;19920;-37
2023/05/02 05:08:03;;;;;;;;;;;;;;;18.29;42.37;100300.16;5072253;28;19912;-36
2023/05/02 05:10:28;;;;;;;;;;;;;;;17.59;44.68;100296.59;5071891;28;19916;-36
2023/05/02 05:12:54;;;;;;;;;;;;;;;16.89;46.48;100296.59;5071921;28;20353;-37
2023/05/02 05:15:21;;;;;;;;;;;;;;;17.43;46.19;100294.59;5071916;28;20007;-36
2023/05/02 05:17:46;;;;;;;;;;;;;;;18.39;44.75;100294.16;5071741;28;19913;-37
2023/05/02 05:20:12;;;;;;;;;;;;;;;18.31;44.79;100294.53;5071711;28;19912;-35
2023/05/02 05:22:40;;;;;;;;;;;;;;;18.65;45.65;100292.72;5071083;28;20391;-37
2023/05/02 05:25:06;;;;;;;;;;;;;;;19.33;43.84;100298.94;5070263;28;20009;-36
2023/05/02 05:27:32;;;;;;;;;;;;;;;19.22;43.98;100307.13;5069711;28;20486;-36
2023/05/02 05:29:57;;;;;;;;;;;;;;;19.66;43.19;100307.19;5070257;28;19962;-36
2023/05/02 05:32:23;;;;;;;;;;;;;;;19.48;44.47;100317.22;5071279;28;19995;-35
2023/05/02 05:34:52;;;;;;;;;;;;;;;20.22;42.65;100315.19;5070861;28;20365;-36
2023/05/02 05:37:17;;;;;;;;;;;;;;;21.04;41.25;100300.56;5070271;28;20365;-36
2023/05/02 05:39:43;;;;;;;;;;;;;;;21.48;40.49;100307.66;5071225;28;19913;-36
2023/05/02 05:42:08;;;;;;;;;;;;;;;21.31;40.89;100315.13;5071112;28;20069;-36
2023/05/02 05:44:34;;;;;;;;;;;;;;;21.05;41.62;100321.13;5078548;28;20375;-36
2023/05/02 05:46:59;;;;;;;;;;;;;;;20.82;42.75;100319.59;5091136;28;19969;-36
2023/05/02 05:49:25;;;;;;;;;;;;;;;21.22;42.06;100325.59;5091089;28;20346;-35
2023/05/02 05:51:50;;;;;;;;;;;;;;;21.36;40.15;100328.66;5091523;28;20324;-36
2023/05/02 05:54:16;;;;;;;;;;;;;;;20.60;43.35;100329.66;5091522;28;19920;-36
2023/05/02 05:56:41;;;;;;;;;;;;;;;21.33;41.39;100326.50;5091945;28;19916;-37
2023/05/02 05:59:06;;;;;;;;;;;;;;;21.52;40.53;100324.19;5092065;28;19916;-37
2023/05/02 06:01:32;;;;;;;;;;;;;;;21.55;39.82;100327.19;5091821;28;19978;-36
2023/05/02 06:03:58;;;;;;;;;;;;;;;22.17;38.91;100330.19;5091143;28;19943;-36
2023/05/02 06:06:23;;;;;;;;;;;;;;;22.33;39.05;100321.03;5091181;28;19970;-36
2023/05/02 06:08:48;;;;;;;;;;;;;;;22.69;38.47;100329.22;5091135;28;19912;-36
2023/05/02 06:11:13;;;;;;;;;;;;;;;23.67;36.60;100332.69;5090435;28;19954;-35
2023/05/02 06:13:39;;;;;;;;;;;;;;;23.24;36.49;100329.50;5089871;28;20027;-37
2023/05/02 06:16:05;;;;;;;;;;;;;;;23.81;36.05;100327.50;5090460;28;19912;-35
2023/05/02 06:18:30;;;;;;;;;;;;;;;23.42;36.55;100326.22;5090507;28;19920;-37
2023/05/02 06:20:55;;;;;;;;;;;;;;;23.64;36.60;100325.06;5090527;28;19919;-36
2023/05/02 06:23:21;;;;;;;;;;;;;;;24.08;36.00;100329.03;5090240;28;19920;-36
2023/05/02 06:25:46;;;;;;;;;;;;;;;24.22;34.66;100324.59;5090084;28;19920;-36
2023/05/02 06:28:11;;;;;;;;;;;;;;;24.16;35.79;100323.00;5090765;28;19973;-36
2023/05/02 06:30:36;;;;;;;;;;;;;;;24.02;35.49;100320.06;5090719;28;19912;-36
2023/05/02 06:33:05;;;;;;;;;;;;;;;24.18;34.29;100323.53;5090773;28;20030;-36
2023/05/02 06:35:30;;;;;;;;;;;;;;;24.34;34.06;100321.53;5090419;28;19916;-36
2023/05/02 06:37:55;;;;;;;;;;;;;;;23.81;34.09;100314.72;5090931;28;19923;-36
2023/05/02 06:40:21;;;;;;;;;;;;;;;23.81;34.41;100316.63;5090544;28;19989;-37
2023/05/02 06:42:46;;;;;;;;;;;;;;;23.89;34.30;100307.09;5090561;28;19919;-37
2023/05/02 06:45:12;;;;;;;;;;;;;;;24.28;32.74;100311.81;5090495;28;19919;-37
2023/05/02 06:47:37;;;;;;;;;;;;;;;24.14;33.06;100308.88;5090491;28;19912;-37
2023/05/02 06:50:02;;;;;;;;;;;;;;;24.07;33.18;100311.09;5090461;28;20007;-37
2023/05/02 06:52:28;;;;;;;;;;;;;;;24.24;33.53;100308.00;5090402;28;20407;-37
2023/05/02 06:54:53;;;;;;;;;;;;;;;24.49;32.01;100315.19;5089430;28;19938;-37
2023/05/02 06:57:18;;;;;;;;;;;;;;;23.21;34.01;100306.44;5090293;28;20370;-36
2023/05/02 06:59:44;;;;;;;;;;;;;;;24.17;32.90;100305.59;5090481;28;19912;-36
2023/05/02 07:02:10;;;;;;;;;;;;;;;24.09;32.60;100312.44;5090328;28;19935;-37
2023/05/02 07:04:35;;;;;;;;;;;;;;;23.63;32.90;100307.16;5090066;28;20303;-36
2023/05/02 07:07:00;;;;;;;;;;;;;;;24.08;32.87;100310.00;5089755;28;20029;-36
2023/05/02 07:09:26;;;;;;;;;;;;;;;25.04;31.22;100307.72;5090645;28;20002;-36
2023/05/02 07:11:51;;;;;;;;;;;;;;;24.46;31.76;100300.25;5090454;28;20295;-37
2023/05/02 07:14:16;;;;;;;;;;;;;;;24.39;31.54;100316.09;5090407;28;19963;-36
2023/05/02 07:16:41;;;;;;;;;;;;;;;24.56;30.68;100313.81;5089971;28;19912;-35
2023/05/02 07:19:07;;;;;;;;;;;;;;;23.76;30.57;100309.28;5090204;28;19916;-38
2023/05/02 07:21:32;;;;;;;;;;;;;;;24.03;30.67;100308.13;5090213;28;20013;-37
2023/05/02 07:23:57;;;;;;;;;;;;;;;24.08;30.67;100305.34;5090323;28;20338;-36
2023/05/02 07:26:24;;;;;;;;;;;;;;;24.09;30.58;100300.75;5089960;28;19986;-36
2023/05/02 07:28:49;;;;;;;;;;;;;;;25.17;28.82;100295.34;5090474;28;20305;-36
2023/05/02 07:31:14;;;;;;;;;;;;;;;25.08;29.33;100295.16;5090014;28;20433;-38
2023/05/02 07:33:40;;;;;;;;;;;;;;;23.20;31.35;100301.28;5090388;28;19916;-36
2023/05/02 07:36:05;;;;;;;;;;;;;;;23.55;31.34;100294.13;5090304;28;20330;-37
2023/05/02 07:38:30;;;;;;;;;;;;;;;23.68;31.51;100298.19;5090377;28;20015;-36
2023/05/02 07:40:59;;;;;;;;;;;;;;;23.17;32.66;100285.53;5090320;28;19922;-36
2023/05/02 07:43:25;;;;;;;;;;;;;;;23.83;31.82;100291.91;5090352;28;19930;-35
2023/05/02 07:45:50;;;;;;;;;;;;;;;24.03;31.54;100291.81;5089746;28;19916;-35
2023/05/02 07:48:16;;;;;;;;;;;;;;;24.55;30.64;100287.69;5089845;28;19923;-36
2023/05/02 07:50:41;;;;;;;;;;;;;;;22.94;32.06;100285.03;5090195;28;20371;-37
2023/05/02 07:53:06;;;;;;;;;;;;;;;23.11;31.14;100270.34;5089509;28;20007;-36
2023/05/02 07:55:32;;;;;;;;;;;;;;;22.15;32.36;100276.22;5089449;28;19935;-35
2023/05/02 07:57:57;;;;;;;;;;;;;;;22.44;32.34;100278.47;5089666;28;19963;-36
2023/05/02 08:00:22;;;;;;;;;;;;;;;23.56;30.03;100268.63;5089811;28;19954;-36
2023/05/02 08:02:48;;;;;;;;;;;;;;;24.55;28.67;100271.38;5089383;28;20054;-36
2023/05/02 08:05:13;;;;;;;;;;;;;;;24.09;28.74;100268.94;5089482;28;19999;-36
2023/05/02 08:07:38;;;;;;;;;;;;;;;24.10;28.32;100261.59;5092590;28;19916;-35
2023/05/02 08:10:04;;;;;;;;;;;;;;;24.61;28.10;100266.69;5092951;28;19944;-36
2023/05/02 08:12:30;;;;;;;;;;;;;;;24.64;27.60;100265.34;5092809;28;19912;-37
2023/05/02 08:14:55;;;;;;;;;;;;;;;22.90;28.50;100285.81;5093206;28;19924;-36
2023/05/02 08:17:21;;;;;;;;;;;;;;;22.76;29.17;100261.16;5093195;28;20007;-36
2023/05/02 08:19:46;;;;;;;;;;;;;;;23.42;28.34;100260.25;5092918;28;19916;-36
2023/05/02 08:22:11;;;;;;;;;;;;;;;23.08;28.40;100260.06;5093227;28;19919;-37
2023/05/02 08:24:37;;;;;;;;;;;;;;;23.02;28.12;100260.03;5092876;28;19912;-37
2023/05/02 08:27:02;;;;;;;;;;;;;;;23.05;28.30;100258.69;5093378;28;19963;-37
2023/05/02 08:29:28;;;;;;;;;;;;;;;23.57;27.93;100245.78;5093289;28;19985;-37
2023/05/02 08:31:54;;;;;;;;;;;;;;;23.32;27.95;100249.41;5092921;28;19985;-36
2023/05/02 08:34:19;;;;;;;;;;;;;;;23.01;28.69;100247.53;5093445;28;20281;-37
2023/05/02 08:36:46;;;;;;;;;;;;;;;22.99;27.65;100241.56;5092901;28;19934;-37
2023/05/02 08:39:11;;;;;;;;;;;;;;;22.85;27.59;100248.66;5092931;28;19919;-35
2023/05/02 08:41:37;;;;;;;;;;;;;;;23.14;27.77;100239.97;5093044;28;20315;-36
2023/05/02 08:44:03;;;;;;;;;;;;;;;24.18;27.27;100242.78;5092873;28;19918;-36
2023/05/02 08:46:29;;;;;;;;;;;;;;;23.96;26.84;100242.38;5092828;28;19995;-37
2023/05/02 08:48:57;;;;;;;;;;;;;;;23.20;27.58;100255.94;5092647;28;20466;-37
2023/05/02 08:51:23;;;;;;;;;;;;;;;22.68;28.22;100246.22;5092715;28;19912;-37
2023/05/02 08:53:49;;;;;;;;;;;;;;;22.81;27.86;100234.03;5092731;28;20287;-37
2023/05/02 08:56:15;;;;;;;;;;;;;;;22.34;28.22;100226.97;5092768;28;19912;-37
2023/05/02 08:58:40;;;;;;;;;;;;;;;22.79;28.16;100220.72;5092530;28;19931;-36
2023/05/02 09:01:16;;;;;;;;;;;;;;;23.13;27.39;100244.59;5092252;28;19916;-37
2023/05/02 09:03:44;;;;;;;;;;;;;;;22.56;28.05;100226.69;5092336;28;19919;-36
2023/05/02 09:06:13;;;;;;;;;;;;;;;23.25;27.58;100222.56;5092463;28;20268;-37
2023/05/02 09:08:39;;;;;;;;;;;;;;;23.49;26.98;100219.19;5091945;28;20690;-35
2023/05/02 09:11:05;;;;;;;;;;;;;;;23.65;26.45;100209.91;5092271;28;19916;-35
2023/05/02 09:13:35;;;;;;;;;;;;;;;23.16;27.14;100232.34;5091993;28;19962;-37
2023/05/02 09:16:01;;;;;;;;;;;;;;;22.74;27.57;100220.72;5091935;28;19916;-37
2023/05/02 09:18:30;;;;;;;;;;;;;;;23.02;26.81;100205.75;5090922;28;19916;-37
2023/05/02 09:20:57;;;;;;;;;;;;;;;22.34;27.98;100195.25;5091626;28;19954;-37
2023/05/02 09:23:31;;;;;;;;;;;;;;;21.88;27.41;100199.78;5091820;28;19934;-36
2023/05/02 09:25:57;;;;;;;;;;;;;;;22.78;27.40;100194.66;5091346;28;20065;-36
2023/05/02 09:28:36;;;;;;;;;;;;;;;22.81;26.96;100196.03;5091871;28;20017;-37
2023/05/02 09:31:09;;;;;;;;;;;;;;;22.09;27.50;100200.63;5092049;28;19919;-36
2023/05/02 09:33:35;;;;;;;;;;;;;;;22.32;27.27;100197.41;5091964;28;19912;-37
2023/05/02 09:36:00;;;;;;;;;;;;;;;21.94;27.10;100195.97;5091803;28;19932;-36
2023/05/02 09:38:26;;;;;;;;;;;;;;;22.33;27.41;100187.38;5091969;28;19999;-35
2023/05/02 09:40:55;;;;;;;;;;;;;;;22.70;26.50;100189.00;5091669;28;20259;-37
2023/05/02 09:43:20;;;;;;;;;;;;;;;22.47;27.74;100174.09;5091855;28;19916;-36
2023/05/02 09:45:55;;;;;;;;;;;;;;;22.86;27.00;100181.63;5091807;28;20011;-37
2023/05/02 09:48:20;;;;;;;;;;;;;;;22.75;27.10;100188.97;5091457;28;20076;-36
2023/05/02 09:50:45;;;;;;;;;;;;;;;23.23;25.62;100163.09;5091452;28;20425;-37
2023/05/02 09:53:11;;;;;;;;;;;;;;;22.94;26.72;100170.22;5091009;28;19912;-37
2023/05/02 09:55:36;;;;;;;;;;;;;;;22.64;27.24;100159.16;5090896;28;20174;-37
2023/05/02 09:58:02;;;;;;;;;;;;;;;23.45;26.50;100159.19;5090660;28;19999;-36
2023/05/02 10:00:41;;;;;;;;;;;;;;;22.88;27.33;100158.56;5091008;28;20007;-36
2023/05/02 10:03:07;;;;;;;;;;;;;;;23.03;28.01;100158.53;5090907;28;20006;-36
2023/05/02 10:05:35;;;;;;;;;;;;;;;23.17;27.57;100166.94;5090881;28;20368;-37
2023/05/02 10:08:02;;;;;;;;;;;;;;;23.42;26.50;100149.72;5090617;28;20003;-37
2023/05/02 10:10:28;;;;;;;;;;;;;;;22.94;26.90;100138.50;5091156;28;19912;-36
2023/05/02 10:12:53;;;;;;;;;;;;;;;22.25;27.09;100161.63;5091363;28;19912;-37
2023/05/02 10:15:21;;;;;;;;;;;;;;;22.57;27.16;100158.63;5090955;28;20396;-37
2023/05/02 10:17:50;;;;;;;;;;;;;;;21.98;27.08;100135.56;5090661;28;20306;-36
2023/05/02 10:20:21;;;;;;;;;;;;;;;22.67;27.28;100146.94;5090653;28;19912;-36
2023/05/02 10:22:48;;;;;;;;;;;;;;;23.04;26.76;100153.94;5090786;28;19977;-37
2023/05/02 10:25:13;;;;;;;;;;;;;;;23.31;26.60;100153.56;5090608;28;19999;-37
2023/05/02 10:27:39;;;;;;;;;;;;;;;22.71;26.41;100161.56;5090696;28;20010;-36
2023/05/02 10:30:05;;;;;;;;;;;;;;;22.86;25.94;100130.91;5090865;28;20356;-36
2023/05/02 10:32:35;;;;;;;;;;;;;;;23.16;25.81;100131.91;5090802;28;19916;-37
2023/05/02 10:35:02;;;;;;;;;;;;;;;23.26;26.26;100150.88;5090393;28;19916;-36
2023/05/02 10:37:28;;;;;;;;;;;;;;;22.53;26.56;100138.56;5090340;28;19919;-36
2023/05/02 10:39:54;;;;;;;;;;;;;;;22.94;26.79;100130.34;5090785;28;20400;-36
2023/05/02 10:42:19;;;;;;;;;;;;;;;23.09;26.99;100137.63;5090158;28;19959;-36
2023/05/02 10:44:45;;;;;;;;;;;;;;;23.23;25.51;100135.97;5090582;28;19919;-36
2023/05/02 10:47:17;;;;;;;;;;;;;;;22.92;26.15;100124.34;5090439;28;19912;-37
2023/05/02 10:49:56;;;;;;;;;;;;;;;23.61;25.94;100138.22;5090271;28;19964;-36
2023/05/02 10:52:29;;;;;;;;;;;;;;;23.27;25.78;100117.22;5090327;28;20020;-37
2023/05/02 10:55:14;;;;;;;;;;;;;;;23.48;25.67;100146.97;5090388;28;19924;-37
2023/05/02 10:57:58;;;;;;;;;;;;;;;23.73;25.16;100124.28;5090196;28;19912;-36
2023/05/02 11:00:28;;;;;;;;;;;;;;;23.25;25.09;100119.41;5091164;28;19946;-37
2023/05/02 11:02:53;;;;;;;;;;;;;;;23.58;24.90;100114.31;5090832;28;20022;-36
2023/05/02 11:05:18;;;;;;;;;;;;;;;22.93;25.20;100134.13;5090172;28;20058;-38
2023/05/02 11:07:44;;;;;;;;;;;;;;;22.92;25.47;100134.41;5087258;28;20388;-36
2023/05/02 11:10:21;;;;;;;;;;;;;;;23.32;25.68;100111.75;5088670;28;19969;-36
2023/05/02 11:12:47;;;;;;;;;;;;;;;23.52;25.23;100107.31;5089510;28;20379;-36
2023/05/02 11:15:28;;;;;;;;;;;;;;;23.96;25.10;100098.34;5089587;28;19920;-37
2023/05/02 11:18:00;;;;;;;;;;;;;;;24.22;24.64;100101.66;5088622;28;20003;-36
2023/05/02 11:20:26;;;;;;;;;;;;;;;24.44;24.06;100100.34;5087950;28;19912;-36
2023/05/02 11:22:52;;;;;;;;;;;;;;;24.44;23.99;100106.59;5090255;28;19974;-36
2023/05/02 11:25:27;;;;;;;;;;;;;;;23.59;24.65;100108.63;5090307;28;19975;-36
2023/05/02 11:27:53;;;;;;;;;;;;;;;23.51;24.84;100094.81;5089878;28;19916;-36
2023/05/02 11:30:35;;;;;;;;;;;;;;;23.48;25.10;100111.69;5089909;28;19965;-37
2023/05/02 11:33:03;;;;;;;;;;;;;;;23.51;24.95;100116.53;5088874;28;19912;-38
2023/05/02 11:35:33;;;;;;;;;;;;;;;22.86;25.20;100098.34;5089728;28;19920;-37
2023/05/02 11:38:09;;;;;;;;;;;;;;;22.98;24.95;100106.16;5089944;28;19912;-37
2023/05/02 11:40:34;;;;;;;;;;;;;;;22.98;25.44;100103.44;5088640;28;19916;-37
2023/05/02 11:43:00;;;;;;;;;;;;;;;23.28;25.27;100096.28;5093873;28;19919;-37
2023/05/02 11:45:38;;;;;;;;;;;;;;;23.19;25.91;100091.47;5094621;28;19919;-36
2023/05/02 11:48:04;;;;;;;;;;;;;;;23.28;25.26;100080.81;5094194;28;20311;-36
2023/05/02 11:50:29;;;;;;;;;;;;;;;23.46;25.05;100073.13;5094427;28;19912;-37
2023/05/02 11:52:55;;;;;;;;;;;;;;;23.59;25.40;100059.72;5093631;28;19919;-36
2023/05/02 11:55:20;;;;;;;;;;;;;;;23.90;25.19;100062.25;5094141;28;20278;-36
2023/05/02 11:57:45;;;;;;;;;;;;;;;24.18;24.89;100090.53;5093826;28;20487;-37
2023/05/02 12:00:11;;;;;;;;;;;;;;;23.42;25.27;100049.25;5093992;28;19923;-38
2023/05/02 12:02:40;;;;;;;;;;;;;;;23.54;25.63;100040.75;5091873;28;20353;-36
2023/05/02 12:05:07;;;;;;;;;;;;;;;23.77;25.88;100060.94;5092770;28;19916;-35
2023/05/02 12:07:43;;;;;;;;;;;;;;;23.29;26.10;100054.50;5093305;28;20010;-37
2023/05/02 12:10:08;;;;;;;;;;;;;;;23.00;25.63;100042.41;5091541;28;19916;-36
2023/05/02 12:12:34;;;;;;;;;;;;;;;23.30;25.73;100046.03;5093305;28;20303;-36
2023/05/02 12:15:07;;;;;;;;;;;;;;;22.88;26.28;100055.47;5093060;28;19924;-36
2023/05/02 12:17:33;;;;;;;;;;;;;;;23.16;26.29;100059.44;5092238;28;20014;-35
2023/05/02 12:19:59;;;;;;;;;;;;;;;22.65;26.05;100056.91;5092881;28;20354;-36
2023/05/02 12:22:25;;;;;;;;;;;;;;;22.50;25.50;100046.09;5093318;28;19911;-36
2023/05/02 12:24:52;;;;;;;;;;;;;;;22.77;25.70;100034.88;5092682;28;19954;-36
2023/05/02 12:27:17;;;;;;;;;;;;;;;23.02;24.98;100029.34;5093007;28;20384;-37
2023/05/02 12:29:44;;;;;;;;;;;;;;;22.49;25.96;100044.50;5093045;28;19919;-37
2023/05/02 12:32:12;;;;;;;;;;;;;;;22.83;26.03;100003.94;5093603;28;20002;-36
2023/05/02 12:34:38;;;;;;;;;;;;;;;23.12;26.29;100014.94;5090468;28;19970;-37